sensor_id;sensor_type;location;lat;lon;timestamp;pressure;altitude;pressure_sealevel;temperature;humidity
51178;BME280;37243;49.814;8.652;2022-07-23T00:01:29;100126.22;;;27.67;43.32
51178;BME280;37243;49.814;8.652;2022-07-23T00:03:58;100130.91;;;27.67;43.52
51178;BME280;37243;49.814;8.652;2022-07-23T00:06:26;100132.84;;;27.66;43.42
51178;BME280;37243;49.814;8.652;2022-07-23T00:08:54;100140.00;;;27.67;43.46
51178;BME280;37243;49.814;8.652;2022-07-23T00:11:23;100154.09;;;27.66;44.00
51178;BME280;37243;49.814;8.652;2022-07-23T00:13:54;100168.38;;;27.68;44.10
51178;BME280;37243;49.814;8.652;2022-07-23T00:16:23;100175.81;;;27.67;43.69
51178;BME280;37243;49.814;8.652;2022-07-23T00:18:51;100171.13;;;27.68;43.67
51178;BME280;37243;49.814;8.652;2022-07-23T00:21:20;100185.34;;;27.70;44.03
51178;BME280;37243;49.814;8.652;2022-07-23T00:23:48;100188.13;;;27.70;43.74
51178;BME280;37243;49.814;8.652;2022-07-23T00:26:16;100186.03;;;27.67;43.98
51178;BME280;37243;49.814;8.652;2022-07-23T00:28:45;100179.03;;;27.69;43.28
51178;BME280;37243;49.814;8.652;2022-07-23T00:31:16;100176.28;;;27.69;43.97
51178;BME280;37243;49.814;8.652;2022-07-23T00:33:44;100168.00;;;27.69;43.62
51178;BME280;37243;49.814;8.652;2022-07-23T00:36:13;100149.06;;;27.68;43.63
51178;BME280;37243;49.814;8.652;2022-07-23T00:38:41;100134.47;;;27.67;44.02
51178;BME280;37243;49.814;8.652;2022-07-23T00:41:09;100104.97;;;27.68;43.22
51178;BME280;37243;49.814;8.652;2022-07-23T00:43:38;100084.06;;;27.67;43.95
51178;BME280;37243;49.814;8.652;2022-07-23T00:46:06;100079.34;;;27.67;43.64
51178;BME280;37243;49.814;8.652;2022-07-23T00:48:37;100070.28;;;27.67;43.62
51178;BME280;37243;49.814;8.652;2022-07-23T00:51:05;100083.25;;;27.66;43.74
51178;BME280;37243;49.814;8.652;2022-07-23T00:53:34;100096.22;;;27.66;43.76
51178;BME280;37243;49.814;8.652;2022-07-23T00:56:03;100130.91;;;27.67;44.08
51178;BME280;37243;49.814;8.652;2022-07-23T00:58:34;100140.31;;;27.66;44.05
51178;BME280;37243;49.814;8.652;2022-07-23T01:01:03;100152.50;;;27.65;43.72
51178;BME280;37243;49.814;8.652;2022-07-23T01:03:33;100156.03;;;27.65;43.42
51178;BME280;37243;49.814;8.652;2022-07-23T01:06:04;100171.81;;;27.65;43.76
51178;BME280;37243;49.814;8.652;2022-07-23T01:08:33;100186.38;;;27.65;43.43
51178;BME280;37243;49.814;8.652;2022-07-23T01:11:01;100193.50;;;27.66;44.05
51178;BME280;37243;49.814;8.652;2022-07-23T01:15:56;100197.75;;;27.64;43.97
51178;BME280;37243;49.814;8.652;2022-07-23T01:18:25;100205.66;;;27.65;43.72
51178;BME280;37243;49.814;8.652;2022-07-23T01:20:53;100191.09;;;27.65;43.77
51178;BME280;37243;49.814;8.652;2022-07-23T01:23:24;100192.22;;;27.64;44.13
51178;BME280;37243;49.814;8.652;2022-07-23T01:25:53;100188.66;;;27.63;43.81
51178;BME280;37243;49.814;8.652;2022-07-23T01:28:22;100182.34;;;27.63;43.75
51178;BME280;37243;49.814;8.652;2022-07-23T01:30:50;100165.81;;;27.63;43.72
51178;BME280;37243;49.814;8.652;2022-07-23T01:33:18;100163.03;;;27.63;43.72
51178;BME280;37243;49.814;8.652;2022-07-23T01:35:47;100166.28;;;27.65;43.58
51178;BME280;37243;49.814;8.652;2022-07-23T01:38:15;100153.66;;;27.64;43.77
51178;BME280;37243;49.814;8.652;2022-07-23T01:40:46;100164.78;;;27.67;43.72
51178;BME280;37243;49.814;8.652;2022-07-23T01:43:14;100170.63;;;27.66;43.72
51178;BME280;37243;49.814;8.652;2022-07-23T01:45:43;100167.88;;;27.66;44.18
51178;BME280;37243;49.814;8.652;2022-07-23T01:48:11;100156.41;;;27.64;43.77
51178;BME280;37243;49.814;8.652;2022-07-23T01:50:40;100153.28;;;27.65;43.50
51178;BME280;37243;49.814;8.652;2022-07-23T01:53:09;100161.56;;;27.65;43.98
51178;BME280;37243;49.814;8.652;2022-07-23T01:55:37;100165.13;;;27.66;43.81
51178;BME280;37243;49.814;8.652;2022-07-23T01:58:08;100171.00;;;27.64;43.52
51178;BME280;37243;49.814;8.652;2022-07-23T02:00:36;100162.38;;;27.66;43.83
51178;BME280;37243;49.814;8.652;2022-07-23T02:03:05;100158.03;;;27.65;43.34
51178;BME280;37243;49.814;8.652;2022-07-23T02:05:33;100171.81;;;27.65;43.92
51178;BME280;37243;49.814;8.652;2022-07-23T02:08:02;100189.94;;;27.66;44.07
51178;BME280;37243;49.814;8.652;2022-07-23T02:10:30;100196.59;;;27.65;43.75
51178;BME280;37243;49.814;8.652;2022-07-23T02:12:58;100198.69;;;27.68;43.96
51178;BME280;37243;49.814;8.652;2022-07-23T02:15:30;100201.09;;;27.69;43.35
51178;BME280;37243;49.814;8.652;2022-07-23T02:17:58;100204.97;;;27.68;43.58
51178;BME280;37243;49.814;8.652;2022-07-23T02:20:27;100193.03;;;27.64;44.08
51178;BME280;37243;49.814;8.652;2022-07-23T02:22:55;100194.63;;;27.65;44.09
51178;BME280;37243;49.814;8.652;2022-07-23T02:25:23;100199.34;;;27.65;44.09
51178;BME280;37243;49.814;8.652;2022-07-23T02:27:52;100179.59;;;27.63;44.21
51178;BME280;37243;49.814;8.652;2022-07-23T02:30:20;100181.88;;;27.60;44.08
51178;BME280;37243;49.814;8.652;2022-07-23T02:32:51;100176.38;;;27.60;44.15
51178;BME280;37243;49.814;8.652;2022-07-23T02:35:20;100171.66;;;27.61;43.82
51178;BME280;37243;49.814;8.652;2022-07-23T02:37:48;100170.84;;;27.60;44.24
51178;BME280;37243;49.814;8.652;2022-07-23T02:40:17;100172.94;;;27.64;43.65
51178;BME280;37243;49.814;8.652;2022-07-23T02:42:45;100160.78;;;27.65;43.90
51178;BME280;37243;49.814;8.652;2022-07-23T02:45:14;100173.38;;;27.66;43.92
51178;BME280;37243;49.814;8.652;2022-07-23T02:47:42;100172.25;;;27.67;44.04
51178;BME280;37243;49.814;8.652;2022-07-23T02:50:13;100166.28;;;27.65;43.80
51178;BME280;37243;49.814;8.652;2022-07-23T02:52:41;100146.88;;;27.61;44.16
51178;BME280;37243;49.814;8.652;2022-07-23T02:55:10;100164.22;;;27.62;43.57
51178;BME280;37243;49.814;8.652;2022-07-23T02:57:38;100163.03;;;27.63;43.69
51178;BME280;37243;49.814;8.652;2022-07-23T03:00:08;100180.41;;;27.63;43.96
51178;BME280;37243;49.814;8.652;2022-07-23T03:02:37;100205.66;;;27.65;43.93
51178;BME280;37243;49.814;8.652;2022-07-23T03:05:06;100198.69;;;27.68;43.57
51178;BME280;37243;49.814;8.652;2022-07-23T03:07:37;100200.94;;;27.66;44.10
51178;BME280;37243;49.814;8.652;2022-07-23T03:10:06;100193.84;;;27.65;44.04
51178;BME280;37243;49.814;8.652;2022-07-23T03:12:34;100185.91;;;27.63;43.84
51178;BME280;37243;49.814;8.652;2022-07-23T03:15:04;100182.69;;;27.61;44.45
51178;BME280;37243;49.814;8.652;2022-07-23T03:17:32;100169.03;;;27.65;44.06
51178;BME280;37243;49.814;8.652;2022-07-23T03:20:01;100178.91;;;27.66;43.71
51178;BME280;37243;49.814;8.652;2022-07-23T03:22:29;100202.56;;;27.67;43.83
51178;BME280;37243;49.814;8.652;2022-07-23T03:25:00;100204.38;;;27.63;44.33
51178;BME280;37243;49.814;8.652;2022-07-23T03:27:29;100218.16;;;27.63;44.89
51178;BME280;37243;49.814;8.652;2022-07-23T03:29:59;100231.94;;;27.63;44.38
51178;BME280;37243;49.814;8.652;2022-07-23T03:32:28;100227.59;;;27.62;44.49
51178;BME280;37243;49.814;8.652;2022-07-23T03:34:57;100233.44;;;27.60;44.95
51178;BME280;37243;49.814;8.652;2022-07-23T03:37:25;100231.50;;;27.60;45.00
51178;BME280;37243;49.814;8.652;2022-07-23T03:39:54;100241.84;;;27.64;44.67
51178;BME280;37243;49.814;8.652;2022-07-23T03:42:25;100240.22;;;27.63;44.46
51178;BME280;37243;49.814;8.652;2022-07-23T03:44:53;100235.38;;;27.59;45.06
51178;BME280;37243;49.814;8.652;2022-07-23T03:47:21;100240.88;;;27.59;44.72
51178;BME280;37243;49.814;8.652;2022-07-23T03:49:50;100231.03;;;27.58;45.23
51178;BME280;37243;49.814;8.652;2022-07-23T03:52:18;100232.63;;;27.59;45.39
51178;BME280;37243;49.814;8.652;2022-07-23T03:54:46;100233.13;;;27.62;44.68
51178;BME280;37243;49.814;8.652;2022-07-23T03:57:15;100227.25;;;27.63;44.66
51178;BME280;37243;49.814;8.652;2022-07-23T03:59:46;100241.84;;;27.64;44.70
51178;BME280;37243;49.814;8.652;2022-07-23T04:02:14;100235.19;;;27.65;45.25
51178;BME280;37243;49.814;8.652;2022-07-23T04:04:43;100234.50;;;27.68;44.95
51178;BME280;37243;49.814;8.652;2022-07-23T04:07:12;100229.19;;;27.63;45.50
51178;BME280;37243;49.814;8.652;2022-07-23T04:09:40;100218.16;;;27.63;44.75
51178;BME280;37243;49.814;8.652;2022-07-23T04:12:09;100223.22;;;27.60;45.03
51178;BME280;37243;49.814;8.652;2022-07-23T04:14:37;100248.47;;;27.63;45.04
51178;BME280;37243;49.814;8.652;2022-07-23T04:17:08;100239.88;;;27.64;44.75
51178;BME280;37243;49.814;8.652;2022-07-23T04:19:37;100249.75;;;27.65;45.24
51178;BME280;37243;49.814;8.652;2022-07-23T04:22:07;100260.44;;;27.67;45.30
51178;BME280;37243;49.814;8.652;2022-07-23T04:24:35;100260.78;;;27.65;45.52
51178;BME280;37243;49.814;8.652;2022-07-23T04:27:04;100265.97;;;27.67;45.30
51178;BME280;37243;49.814;8.652;2022-07-23T04:29:32;100257.56;;;27.63;45.45
51178;BME280;37243;49.814;8.652;2022-07-23T04:32:01;100255.94;;;27.62;44.82
51178;BME280;37243;49.814;8.652;2022-07-23T04:34:32;100259.19;;;27.64;45.20
51178;BME280;37243;49.814;8.652;2022-07-23T04:37:00;100268.94;;;27.62;45.04
51178;BME280;37243;49.814;8.652;2022-07-23T04:39:29;100275.72;;;27.64;44.81
51178;BME280;37243;49.814;8.652;2022-07-23T04:41:57;100285.94;;;27.64;45.48
51178;BME280;37243;49.814;8.652;2022-07-23T04:44:25;100297.75;;;27.64;44.80
51178;BME280;37243;49.814;8.652;2022-07-23T04:46:54;100313.13;;;27.65;44.71
51178;BME280;37243;49.814;8.652;2022-07-23T04:49:22;100322.22;;;27.66;45.42
51178;BME280;37243;49.814;8.652;2022-07-23T04:51:53;100333.25;;;27.66;44.65
51178;BME280;37243;49.814;8.652;2022-07-23T04:54:22;100330.47;;;27.66;44.69
51178;BME280;37243;49.814;8.652;2022-07-23T04:56:50;100320.63;;;27.65;45.19
51178;BME280;37243;49.814;8.652;2022-07-23T04:59:18;100311.88;;;27.63;45.18
51178;BME280;37243;49.814;8.652;2022-07-23T05:01:47;100314.97;;;27.61;45.71
51178;BME280;37243;49.814;8.652;2022-07-23T05:04:16;100326.31;;;27.59;45.97
51178;BME280;37243;49.814;8.652;2022-07-23T05:06:44;100316.47;;;27.58;46.35
51178;BME280;37243;49.814;8.652;2022-07-23T05:09:15;100319.88;;;27.55;46.22
51178;BME280;37243;49.814;8.652;2022-07-23T05:11:43;100314.25;;;27.52;47.16
51178;BME280;37243;49.814;8.652;2022-07-23T05:14:12;100311.63;;;27.55;47.00
51178;BME280;37243;49.814;8.652;2022-07-23T05:16:40;100299.78;;;27.55;47.40
51178;BME280;37243;49.814;8.652;2022-07-23T05:19:09;100308.38;;;27.53;47.59
51178;BME280;37243;49.814;8.652;2022-07-23T05:21:37;100329.63;;;27.53;47.64
51178;BME280;37243;49.814;8.652;2022-07-23T05:24:06;100324.78;;;27.50;47.93
51178;BME280;37243;49.814;8.652;2022-07-23T05:26:37;100318.47;;;27.49;47.82
51178;BME280;37243;49.814;8.652;2022-07-23T05:29:06;100313.28;;;27.48;48.23
51178;BME280;37243;49.814;8.652;2022-07-23T05:31:34;100320.28;;;27.45;47.83
51178;BME280;37243;49.814;8.652;2022-07-23T05:34:02;100324.31;;;27.48;47.83
51178;BME280;37243;49.814;8.652;2022-07-23T05:36:31;100325.78;;;27.45;47.69
51178;BME280;37243;49.814;8.652;2022-07-23T05:38:59;100328.91;;;27.44;47.69
51178;BME280;37243;49.814;8.652;2022-07-23T05:41:28;100343.47;;;27.44;48.16
51178;BME280;37243;49.814;8.652;2022-07-23T05:43:58;100352.88;;;27.43;47.48
51178;BME280;37243;49.814;8.652;2022-07-23T05:46:27;100353.53;;;27.40;48.25
51178;BME280;37243;49.814;8.652;2022-07-23T05:48:55;100359.84;;;27.41;47.91
51178;BME280;37243;49.814;8.652;2022-07-23T05:51:24;100366.19;;;27.41;47.43
51178;BME280;37243;49.814;8.652;2022-07-23T05:53:53;100367.28;;;27.40;47.43
51178;BME280;37243;49.814;8.652;2022-07-23T05:56:21;100372.34;;;27.38;48.06
51178;BME280;37243;49.814;8.652;2022-07-23T05:58:50;100363.59;;;27.36;47.56
51178;BME280;37243;49.814;8.652;2022-07-23T06:01:21;100366.81;;;27.38;47.57
51178;BME280;37243;49.814;8.652;2022-07-23T06:03:49;100358.56;;;27.38;47.51
51178;BME280;37243;49.814;8.652;2022-07-23T06:06:17;100368.41;;;27.39;47.93
51178;BME280;37243;49.814;8.652;2022-07-23T06:08:46;100359.84;;;27.41;47.81
51178;BME280;37243;49.814;8.652;2022-07-23T06:11:14;100355.00;;;27.38;47.97
51178;BME280;37243;49.814;8.652;2022-07-23T06:13:43;100343.63;;;27.39;47.52
51178;BME280;37243;49.814;8.652;2022-07-23T06:16:11;100348.00;;;27.40;48.16
51178;BME280;37243;49.814;8.652;2022-07-23T06:18:42;100338.13;;;27.39;47.47
51178;BME280;37243;49.814;8.652;2022-07-23T06:21:10;100342.81;;;27.39;47.83
51178;BME280;37243;49.814;8.652;2022-07-23T06:23:39;100333.13;;;27.41;47.81
51178;BME280;37243;49.814;8.652;2022-07-23T06:26:07;100340.88;;;27.39;47.89
51178;BME280;37243;49.814;8.652;2022-07-23T06:28:35;100327.63;;;27.41;47.82
51178;BME280;37243;49.814;8.652;2022-07-23T06:31:04;100325.16;;;27.40;47.78
51178;BME280;37243;49.814;8.652;2022-07-23T06:33:33;100324.50;;;27.43;48.10
51178;BME280;37243;49.814;8.652;2022-07-23T06:36:04;100332.28;;;27.41;47.71
51178;BME280;37243;49.814;8.652;2022-07-23T06:38:32;100327.63;;;27.41;47.52
51178;BME280;37243;49.814;8.652;2022-07-23T06:41:04;100330.66;;;27.40;47.30
51178;BME280;37243;49.814;8.652;2022-07-23T06:43:32;100340.22;;;27.42;47.53
51178;BME280;37243;49.814;8.652;2022-07-23T06:46:01;100343.81;;;27.43;47.42
51178;BME280;37243;49.814;8.652;2022-07-23T06:48:29;100354.31;;;27.41;47.57
51178;BME280;37243;49.814;8.652;2022-07-23T06:50:59;100358.72;;;27.42;47.13
51178;BME280;37243;49.814;8.652;2022-07-23T06:53:30;100367.78;;;27.42;47.27
51178;BME280;37243;49.814;8.652;2022-07-23T06:55:59;100359.19;;;27.44;47.69
51178;BME280;37243;49.814;8.652;2022-07-23T06:58:27;100358.03;;;27.45;47.06
51178;BME280;37243;49.814;8.652;2022-07-23T07:00:56;100371.50;;;27.46;47.35
51178;BME280;37243;49.814;8.652;2022-07-23T07:03:25;100371.81;;;27.45;46.80
51178;BME280;37243;49.814;8.652;2022-07-23T07:05:53;100367.13;;;27.45;46.99
51178;BME280;37243;49.814;8.652;2022-07-23T07:08:22;100364.84;;;27.47;46.60
51178;BME280;37243;49.814;8.652;2022-07-23T07:10:53;100368.75;;;27.46;46.52
51178;BME280;37243;49.814;8.652;2022-07-23T07:13:22;100382.97;;;27.48;46.75
51178;BME280;37243;49.814;8.652;2022-07-23T07:15:50;100386.91;;;27.47;46.47
51178;BME280;37243;49.814;8.652;2022-07-23T07:18:20;100389.31;;;27.49;47.02
51178;BME280;37243;49.814;8.652;2022-07-23T07:20:49;100390.13;;;27.49;47.00
51178;BME280;37243;49.814;8.652;2022-07-23T07:23:18;100392.88;;;27.49;46.43
51178;BME280;37243;49.814;8.652;2022-07-23T07:25:47;100394.81;;;27.49;47.03
51178;BME280;37243;49.814;8.652;2022-07-23T07:28:19;100401.13;;;27.49;47.02
51178;BME280;37243;49.814;8.652;2022-07-23T07:30:48;100399.50;;;27.48;46.55
51178;BME280;37243;49.814;8.652;2022-07-23T07:33:18;100393.34;;;27.51;46.90
51178;BME280;37243;49.814;8.652;2022-07-23T07:35:47;100396.09;;;27.51;46.45
51178;BME280;37243;49.814;8.652;2022-07-23T07:38:16;100406.66;;;27.49;46.09
51178;BME280;37243;49.814;8.652;2022-07-23T07:40:44;100405.16;;;27.52;45.90
51178;BME280;37243;49.814;8.652;2022-07-23T07:43:13;100407.94;;;27.52;46.61
51178;BME280;37243;49.814;8.652;2022-07-23T07:45:44;100410.69;;;27.52;46.26
51178;BME280;37243;49.814;8.652;2022-07-23T07:48:12;100408.75;;;27.52;46.16
51178;BME280;37243;49.814;8.652;2022-07-23T07:50:40;100405.97;;;27.52;45.75
51178;BME280;37243;49.814;8.652;2022-07-23T07:53:09;100407.13;;;27.51;46.50
51178;BME280;37243;49.814;8.652;2022-07-23T07:55:37;100418.13;;;27.51;46.56
51178;BME280;37243;49.814;8.652;2022-07-23T07:58:06;100427.22;;;27.52;46.26
51178;BME280;37243;49.814;8.652;2022-07-23T08:00:34;100419.25;;;27.50;46.48
51178;BME280;37243;49.814;8.652;2022-07-23T08:03:05;100419.41;;;27.54;46.03
51178;BME280;37243;49.814;8.652;2022-07-23T08:05:33;100420.91;;;27.51;46.28
51178;BME280;37243;49.814;8.652;2022-07-23T08:08:02;100424.78;;;27.50;46.43
51178;BME280;37243;49.814;8.652;2022-07-23T08:10:31;100428.34;;;27.51;46.38
51178;BME280;37243;49.814;8.652;2022-07-23T08:12:59;100430.28;;;27.50;45.62
51178;BME280;37243;49.814;8.652;2022-07-23T08:15:29;100429.16;;;27.51;45.66
51178;BME280;37243;49.814;8.652;2022-07-23T08:17:58;100438.25;;;27.52;46.26
51178;BME280;37243;49.814;8.652;2022-07-23T08:20:29;100433.53;;;27.52;45.66
51178;BME280;37243;49.814;8.652;2022-07-23T08:23:02;100438.69;;;27.54;46.00
51178;BME280;37243;49.814;8.652;2022-07-23T08:25:32;100453.28;;;27.54;46.12
51178;BME280;37243;49.814;8.652;2022-07-23T08:28:02;100461.09;;;27.52;45.39
51178;BME280;37243;49.814;8.652;2022-07-23T08:30:32;100453.63;;;27.53;46.05
51178;BME280;37243;49.814;8.652;2022-07-23T08:33:03;100456.88;;;27.55;45.29
51178;BME280;37243;49.814;8.652;2022-07-23T08:35:36;100459.28;;;27.56;45.69
51178;BME280;37243;49.814;8.652;2022-07-23T08:38:06;100465.94;;;27.55;46.05
51178;BME280;37243;49.814;8.652;2022-07-23T08:40:37;100462.03;;;27.56;45.94
51178;BME280;37243;49.814;8.652;2022-07-23T08:43:07;100458.94;;;27.58;45.54
51178;BME280;37243;49.814;8.652;2022-07-23T08:45:38;100458.59;;;27.59;45.41
51178;BME280;37243;49.814;8.652;2022-07-23T08:48:09;100453.44;;;27.58;45.53
51178;BME280;37243;49.814;8.652;2022-07-23T08:50:44;100458.13;;;27.57;45.49
51178;BME280;37243;49.814;8.652;2022-07-23T08:53:13;100453.44;;;27.58;45.78
51178;BME280;37243;49.814;8.652;2022-07-23T08:55:43;100457.31;;;27.57;45.31
51178;BME280;37243;49.814;8.652;2022-07-23T08:58:12;100458.13;;;27.57;45.81
51178;BME280;37243;49.814;8.652;2022-07-23T09:00:42;100444.00;;;27.59;45.23
51178;BME280;37243;49.814;8.652;2022-07-23T09:03:15;100444.50;;;27.61;44.95
51178;BME280;37243;49.814;8.652;2022-07-23T09:05:47;100443.34;;;27.62;44.98
51178;BME280;37243;49.814;8.652;2022-07-23T09:08:19;100455.19;;;27.63;45.56
51178;BME280;37243;49.814;8.652;2022-07-23T09:10:50;100449.66;;;27.63;45.41
51178;BME280;37243;49.814;8.652;2022-07-23T09:13:33;100448.06;;;27.62;45.69
51178;BME280;37243;49.814;8.652;2022-07-23T09:16:04;100449.22;;;27.60;45.39
51178;BME280;37243;49.814;8.652;2022-07-23T09:18:39;100443.84;;;27.64;45.47
51178;BME280;37243;49.814;8.652;2022-07-23T09:21:21;100442.56;;;27.62;44.88
51178;BME280;37243;49.814;8.652;2022-07-23T09:23:53;100437.50;;;27.64;45.00
51178;BME280;37243;49.814;8.652;2022-07-23T09:26:33;100445.31;;;27.62;44.88
51178;BME280;37243;49.814;8.652;2022-07-23T09:29:05;100447.88;;;27.67;45.20
51178;BME280;37243;49.814;8.652;2022-07-23T09:31:45;100445.78;;;27.64;44.82
51178;BME280;37243;49.814;8.652;2022-07-23T09:34:17;100441.91;;;27.65;45.38
51178;BME280;37243;49.814;8.652;2022-07-23T09:36:49;100442.69;;;27.65;44.81
51178;BME280;37243;49.814;8.652;2022-07-23T09:39:26;100443.03;;;27.64;45.48
51178;BME280;37243;49.814;8.652;2022-07-23T09:41:55;100449.00;;;27.66;45.10
51178;BME280;37243;49.814;8.652;2022-07-23T09:44:23;100447.41;;;27.65;44.76
51178;BME280;37243;49.814;8.652;2022-07-23T09:46:58;100440.72;;;27.66;44.77
51178;BME280;37243;49.814;8.652;2022-07-23T09:49:26;100440.41;;;27.67;45.42
51178;BME280;37243;49.814;8.652;2022-07-23T09:51:59;100443.97;;;27.68;45.22
51178;BME280;37243;49.814;8.652;2022-07-23T09:54:31;100435.72;;;27.68;45.07
51178;BME280;37243;49.814;8.652;2022-07-23T09:57:02;100440.88;;;27.69;44.60
51178;BME280;37243;49.814;8.652;2022-07-23T09:59:33;100438.94;;;27.70;44.74
51178;BME280;37243;49.814;8.652;2022-07-23T10:02:02;100441.22;;;27.68;44.70
51178;BME280;37243;49.814;8.652;2022-07-23T10:04:32;100438.13;;;27.69;44.86
51178;BME280;37243;49.814;8.652;2022-07-23T10:07:04;100440.22;;;27.72;45.39
51178;BME280;37243;49.814;8.652;2022-07-23T10:09:37;100438.25;;;27.73;45.40
51178;BME280;37243;49.814;8.652;2022-07-23T10:12:10;100444.25;;;27.75;45.29
51178;BME280;37243;49.814;8.652;2022-07-23T10:14:51;100441.03;;;27.73;45.03
51178;BME280;37243;49.814;8.652;2022-07-23T10:17:20;100436.63;;;27.72;45.02
51178;BME280;37243;49.814;8.652;2022-07-23T10:19:49;100437.09;;;27.74;44.99
51178;BME280;37243;49.814;8.652;2022-07-23T10:22:24;100435.16;;;27.74;45.05
51178;BME280;37243;49.814;8.652;2022-07-23T10:25:00;100434.34;;;27.74;44.94
51178;BME280;37243;49.814;8.652;2022-07-23T10:30:35;100434.69;;;27.72;44.95
51178;BME280;37243;49.814;8.652;2022-07-23T10:33:29;100429.19;;;27.72;44.94
51178;BME280;37243;49.814;8.652;2022-07-23T10:36:03;100434.03;;;27.75;45.29
51178;BME280;37243;49.814;8.652;2022-07-23T10:38:46;100431.28;;;27.75;45.17
51178;BME280;37243;49.814;8.652;2022-07-23T10:41:30;100421.38;;;27.74;44.97
51178;BME280;37243;49.814;8.652;2022-07-23T10:44:07;100425.75;;;27.75;44.93
51178;BME280;37243;49.814;8.652;2022-07-23T10:46:35;100421.06;;;27.76;45.24
51178;BME280;37243;49.814;8.652;2022-07-23T10:49:22;100426.56;;;27.76;45.11
51178;BME280;37243;49.814;8.652;2022-07-23T10:52:15;100429.78;;;27.78;44.57
51178;BME280;37243;49.814;8.652;2022-07-23T10:54:48;100427.50;;;27.80;44.35
51178;BME280;37243;49.814;8.652;2022-07-23T10:57:18;100426.72;;;27.79;44.56
51178;BME280;37243;49.814;8.652;2022-07-23T11:00:12;100423.59;;;27.81;44.53
51178;BME280;37243;49.814;8.652;2022-07-23T11:02:42;100426.00;;;27.82;45.14
51178;BME280;37243;49.814;8.652;2022-07-23T11:05:13;100419.38;;;27.83;44.60
51178;BME280;37243;49.814;8.652;2022-07-23T11:08:17;100422.13;;;27.83;44.62
51178;BME280;37243;49.814;8.652;2022-07-23T11:10:53;100422.94;;;27.84;44.24
51178;BME280;37243;49.814;8.652;2022-07-23T11:13:29;100419.72;;;27.82;44.90
51178;BME280;37243;49.814;8.652;2022-07-23T11:16:23;100420.84;;;27.81;44.73
51178;BME280;37243;49.814;8.652;2022-07-23T11:18:56;100417.28;;;27.80;44.71
51178;BME280;37243;49.814;8.652;2022-07-23T11:21:44;100413.38;;;27.81;44.48
51178;BME280;37243;49.814;8.652;2022-07-23T11:24:23;100416.47;;;27.80;44.75
51178;BME280;37243;49.814;8.652;2022-07-23T11:26:57;100408.69;;;27.82;44.61
51178;BME280;37243;49.814;8.652;2022-07-23T11:29:43;100416.97;;;27.82;44.33
51178;BME280;37243;49.814;8.652;2022-07-23T11:32:24;100407.41;;;27.79;44.69
51178;BME280;37243;49.814;8.652;2022-07-23T11:34:53;100405.78;;;27.78;44.82
51178;BME280;37243;49.814;8.652;2022-07-23T11:37:42;100405.78;;;27.78;44.65
51178;BME280;37243;49.814;8.652;2022-07-23T11:40:14;100408.69;;;27.82;44.84
51178;BME280;37243;49.814;8.652;2022-07-23T11:42:56;100399.16;;;27.79;44.69
51178;BME280;37243;49.814;8.652;2022-07-23T11:45:30;100411.75;;;27.80;44.67
51178;BME280;37243;49.814;8.652;2022-07-23T11:47:59;100402.69;;;27.80;44.63
51178;BME280;37243;49.814;8.652;2022-07-23T11:50:28;100401.56;;;27.81;44.84
51178;BME280;37243;49.814;8.652;2022-07-23T11:52:56;100399.94;;;27.80;44.99
51178;BME280;37243;49.814;8.652;2022-07-23T11:55:25;100398.34;;;27.79;44.46
51178;BME280;37243;49.814;8.652;2022-07-23T12:07:30;100382.72;;;27.83;44.75
51178;BME280;37243;49.814;8.652;2022-07-23T12:10:02;100377.69;;;27.85;44.25
51178;BME280;37243;49.814;8.652;2022-07-23T12:12:38;100384.47;;;27.87;44.09
51178;BME280;37243;49.814;8.652;2022-07-23T12:15:08;100378.16;;;27.87;44.10
51178;BME280;37243;49.814;8.652;2022-07-23T12:17:39;100380.78;;;27.83;44.44
51178;BME280;37243;49.814;8.652;2022-07-23T12:20:12;100378.00;;;27.83;44.47
51178;BME280;37243;49.814;8.652;2022-07-23T12:22:46;100378.38;;;27.82;44.26
51178;BME280;37243;49.814;8.652;2022-07-23T12:25:16;100371.69;;;27.83;44.13
51178;BME280;37243;49.814;8.652;2022-07-23T12:27:46;100373.63;;;27.82;44.10
51178;BME280;37243;49.814;8.652;2022-07-23T12:30:16;100363.91;;;27.85;44.41
51178;BME280;37243;49.814;8.652;2022-07-23T12:32:45;100380.78;;;27.83;44.04
51178;BME280;37243;49.814;8.652;2022-07-23T12:35:14;100377.34;;;27.86;44.30
51178;BME280;37243;49.814;8.652;2022-07-23T12:37:46;100381.38;;;27.89;44.32
51178;BME280;37243;49.814;8.652;2022-07-23T12:40:28;100377.03;;;27.88;44.25
51178;BME280;37243;49.814;8.652;2022-07-23T12:42:58;100370.19;;;27.85;44.00
51178;BME280;37243;49.814;8.652;2022-07-23T12:45:28;100379.78;;;27.88;44.62
51178;BME280;37243;49.814;8.652;2022-07-23T12:48:16;100373.78;;;27.86;44.63
51178;BME280;37243;49.814;8.652;2022-07-23T12:50:49;100374.59;;;27.86;44.71
51178;BME280;37243;49.814;8.652;2022-07-23T12:53:23;100376.53;;;27.86;44.74
51178;BME280;37243;49.814;8.652;2022-07-23T12:55:59;100369.88;;;27.87;44.48
51178;BME280;37243;49.814;8.652;2022-07-23T12:58:39;100376.22;;;27.87;44.29
51178;BME280;37243;49.814;8.652;2022-07-23T13:01:09;100369.88;;;27.87;44.69
51178;BME280;37243;49.814;8.652;2022-07-23T13:03:39;100381.38;;;27.89;43.95
51178;BME280;37243;49.814;8.652;2022-07-23T13:06:09;100371.97;;;27.90;44.13
51178;BME280;37243;49.814;8.652;2022-07-23T13:08:40;100373.09;;;27.89;44.19
51178;BME280;37243;49.814;8.652;2022-07-23T13:11:09;100375.03;;;27.88;44.21
51178;BME280;37243;49.814;8.652;2022-07-23T13:13:37;100379.78;;;27.88;44.34
51178;BME280;37243;49.814;8.652;2022-07-23T13:16:06;100377.34;;;27.86;44.21
51178;BME280;37243;49.814;8.652;2022-07-23T13:18:34;100374.72;;;27.90;44.09
51178;BME280;37243;49.814;8.652;2022-07-23T13:21:03;100375.03;;;27.88;44.57
51178;BME280;37243;49.814;8.652;2022-07-23T13:23:31;100376.53;;;27.86;43.97